• Join FlightAware (Why Join?)
  • Login
  • US Flag 
11:17PM EDT


 

Airport Tracker/Info


-or-


 

Live Flight TrackerFlight Track Log ✈ FFT532 ✈ 07-Jul-2013 ✈ KDEN - KMDW

Flight Track Log - Related Links

Times and Time Zones

All times are in EDT time to prevent confusion due to time zone crossing. See the FFT532 flight status page for this flight to view local times or setup timezone preferences in your user account.

Time Position Orientation Groundspeed Altitude Reporting Facility
EDT Latitude Longitude Course Direction KTS MPH feet Rate Location/Type
09:10AM 39.8550 -104.6760 90° East 9 10  Level FlightAware
09:12AM 39.8560 -104.6750 38° Northeast 29 33 480 Level FlightAware
09:12AM 39.8570 -104.6720 67° East 23 26 600 Level FlightAware
09:13AM 39.8570 -104.6680 90° East 25 29 600 Level FlightAware
09:14AM 39.8590 -104.6630 62° Northeast 19 22 660 Level FlightAware
09:14AM 39.8600 -104.6630 360° North 23 26 720 Level FlightAware
09:15AM 39.8650 -104.6620 North 23 26 720 Level FlightAware
09:15AM 39.8650 -104.6610 90° East 24 28 900 Level FlightAware
09:16AM 39.8650 -104.6570 90° East 27 31 960 Level FlightAware
09:19AM 39.8667 -104.2945 90° East  Level FlightAware Approximate
09:20AM 39.8667 -104.1480 90° East  Level FlightAware Approximate
09:21AM 39.8667 -104.0014 90° East  Level FlightAware Approximate
09:21AM 39.8330 -104.6420 90° East 176 203 5,600  Level FlightAware
09:21AM 39.8170 -104.6350 161° South 181 208 6,300 1,620 Climbing FlightAware
09:22AM 39.7980 -104.6180 145° Southeast 200 230 6,900 1,020 Climbing FlightAware
09:22AM 39.7740 -104.5960 145° Southeast 241 277 7,300 1,680 Climbing FlightAware
09:23AM 39.7430 -104.5690 146° Southeast 254 292 8,600 2,640 Climbing FlightAware
09:23AM 39.7220 -104.5490 144° Southeast 253 291 9,700 2,820 Climbing FlightAware
09:23AM 39.7060 -104.5310 139° Southeast 251 289 10,500 2,400 Climbing FlightAware
09:24AM 39.7010 -104.5140 111° Southeast 259 298 10,900 1,920 Climbing FlightAware
09:24AM 39.6990 -104.4880 96° East 265 305 11,400 1,920 Climbing FlightAware
09:25AM 39.7050 -104.4230 83° East 283 326 12,800 1,680 Climbing FlightAware
09:25AM 39.7220 -104.3590 71° East 320 368 13,600 1,980 Climbing FlightAware
09:26AM 39.7420 -104.2820 71° East 328 377 15,400 2,220 Climbing FlightAware
09:27AM 39.7680 -104.2100 65° Northeast 340 391 16,700 2,100 Climbing FlightAware
09:27AM 39.8130 -104.1580 42° Northeast 341 392 18,200 2,220 Climbing FlightAware
09:28AM 39.8650 -104.0860 47° Northeast 352 405 19,900 2,100 Climbing FlightAware
09:28AM 39.8690 -104.0600 79° East 354 407 20,300 1,500 Climbing FlightAware
09:29AM 39.8750 -103.9650 85° East 372 428 21,300 1,140 Climbing FlightAware
09:30AM 39.8880 -103.8750 79° East 401 461 21,900 660 Climbing FlightAware
09:30AM 39.9040 -103.7690 79° East 434 499 22,300 780 Climbing FlightAware
09:31AM 39.9200 -103.6620 79° East 453 521 23,000 1,200 Climbing FlightAware
09:32AM 39.9370 -103.5510 79° East 461 531 23,900 1,440 Climbing FlightAware
09:32AM 39.9560 -103.4260 79° East 466 536 25,100 1,440 Climbing FlightAware
09:33AM 39.9740 -103.3050 79° East 475 547 26,100 1,320 Climbing FlightAware
09:34AM 39.9890 -103.2020 79° East 479 551 26,900 1,080 Climbing FlightAware
09:35AM 40.0060 -103.0860 79° East 488 562 27,500 1,080 Climbing FlightAware
09:35AM 40.0220 -102.9730 79° East 491 565 28,400 840 Climbing FlightAware
09:36AM 40.0380 -102.8650 79° East 493 567 28,700 180 Climbing FlightAware
09:36AM 40.0510 -102.7810 79° East 493 567 28,700  Level FlightAware
09:37AM 40.0680 -102.6660 79° East 493 567 28,700  Level FlightAware
09:38AM 40.0820 -102.5720 79° East 493 567 28,700  Level FlightAware
09:39AM 40.1040 -102.4200 79° East 493 567 28,700 2,340 Level FlightAware
09:40AM 40.1442 -102.1078 79° East 506 582 33,900 2,820 Climbing Denver Center
09:41AM 40.1667 -101.9344 80° East 506 582 35,000 840 Climbing Denver Center
09:42AM 40.1903 -101.7633 80° East 502 578 35,700 840 Climbing Denver Center
09:43AM 40.2172 -101.5661 80° East 497 572 36,800 660 Climbing Denver Center
09:44AM 40.2381 -101.3964 81° East 496 571 37,100 120 Climbing Denver Center
09:45AM 40.2642 -101.1989 80° East 495 570 37,100  Level Denver Center
09:46AM 40.2867 -101.0294 80° East 495 570 37,100 -60 Level Denver Center
09:47AM 40.3075 -100.8600 81° East 495 570 37,000  Descending Denver Center
09:48AM 40.3325 -100.6622 81° East 496 571 37,100  Climbing Denver Center
09:49AM 40.3533 -100.4939 81° East 494 568 37,100 -60 Level Denver Center
09:50AM 40.3764 -100.2969 81° East 492 566 37,000  Descending Denver Center
09:51AM 40.3972 -100.1283 81° East 492 566 37,100 540 Climbing Denver Center
09:52AM 40.4206 -99.9319 81° East 490 564 38,200 900 Climbing Denver Center
09:53AM 40.4389 -99.7725 81° East 481 554 39,000 60 Climbing Denver Center
09:59AM 40.5550 -98.7360 81° East 475 547 39,000  Level FlightAware
10:00AM 40.5670 -98.6230 82° East 479 551 39,000 60 Level FlightAware
10:01AM 40.5820 -98.4930 81° East 478 550 39,100  Climbing FlightAware
10:02AM 40.6090 -98.3450 76° East 477 549 39,100  Level FlightAware
10:02AM 40.6310 -98.2120 78° East 476 548 39,100  Level FlightAware
10:03AM 40.6500 -98.0990 77° East 476 548 39,100 -120 Level FlightAware
10:04AM 40.6720 -97.9690 77° East 479 551 39,000  Descending FlightAware
10:04AM 40.6900 -97.8590 78° East 479 551 39,100 60 Climbing FlightAware
10:05AM 40.7100 -97.7430 77° East 479 551 39,100  Level FlightAware
10:06AM 40.7300 -97.6130 78° East 479 551 39,100  Level FlightAware
10:06AM 40.7450 -97.5030 80° East 480 552 39,100 -120 Level FlightAware
10:07AM 40.7620 -97.3710 80° East 482 555 39,000  Descending FlightAware
10:08AM 40.7700 -97.2700 84° East 483 556 39,100  Climbing FlightAware
10:09AM 40.7800 -97.1510 84° East 483 556 39,000 -120 Descending FlightAware
10:09AM 40.7910 -97.0200 84° East 485 558 39,000  Level FlightAware
10:10AM 40.8040 -96.8570 84° East 490 564 39,000  Level FlightAware
10:11AM 40.8180 -96.6940 83° East 489 563 39,100  Climbing FlightAware
10:12AM 40.8290 -96.5490 84° East 485 558 39,100  Level FlightAware
10:12AM 40.8370 -96.4390 84° East 485 558 39,100 -120 Level FlightAware
10:13AM 40.8460 -96.3200 84° East 487 560 39,000  Descending FlightAware
10:14AM 40.8550 -96.1990 84° East 483 556 39,100  Climbing FlightAware
10:16AM 40.8780 -95.8970 84° East 481 554 39,000  Descending FlightAware
10:16AM 40.8880 -95.7500 85° East 481 554 39,100 60 Climbing FlightAware
10:17AM 40.8960 -95.6400 84° East 480 552 39,100  Level FlightAware
10:18AM 40.9040 -95.5250 85° East 479 551 39,100  Level FlightAware
10:18AM 40.9110 -95.4220 85° East 478 550 39,100  Level FlightAware
10:19AM 40.9200 -95.2960 85° East 477 549 39,100  Level FlightAware
10:20AM 40.9280 -95.1720 85° East 471 542 39,100 -120 Level FlightAware
10:20AM 40.9350 -95.0640 85° East 474 545 39,000  Descending FlightAware
10:21AM 40.9430 -94.9300 85° East 479 551 39,100  Climbing FlightAware
10:22AM 40.9510 -94.8130 85° East 481 554 39,000 -120 Descending FlightAware
10:23AM 40.9580 -94.6900 86° East 483 556 39,000 60 Level FlightAware
10:23AM 40.9650 -94.5750 85° East 481 554 39,100  Climbing FlightAware
10:24AM 40.9710 -94.4750 85° East 477 549 39,000  Descending FlightAware
10:24AM 40.9770 -94.3750 85° East 475 547 39,100 60 Climbing FlightAware
10:25AM 40.9840 -94.2540 86° East 476 548 39,100 -120 Level FlightAware
10:26AM 40.9920 -94.1310 85° East 478 550 39,000  Descending FlightAware
10:26AM 40.9980 -94.0110 86° East 475 547 39,100 60 Climbing FlightAware
10:27AM 41.0080 -93.8400 86° East 474 545 39,100  Level FlightAware
10:28AM 41.0150 -93.7100 86° East 476 548 39,100 -120 Level FlightAware
10:29AM 41.0200 -93.6060 86° East 479 551 39,000 -120 Descending FlightAware
10:29AM 41.0260 -93.4870 86° East 475 547 39,000  Level FlightAware
10:30AM 41.0320 -93.3780 86° East 474 545 39,000 -420 Level FlightAware
10:31AM 41.0380 -93.2480 86° East 468 539 38,500 -720 Descending FlightAware
10:31AM 41.0420 -93.1760 86° East 464 534 38,200 -780 Descending FlightAware
10:32AM 41.0480 -93.0490 86° East 464 534 37,600 -840 Descending FlightAware
10:33AM 41.0540 -92.9250 86° East 467 537 37,000 -900 Descending FlightAware
10:33AM 41.0580 -92.8230 87° East 468 539 36,500 -780 Descending FlightAware
10:34AM 41.0630 -92.7300 86° East 467 537 36,100 -780 Descending FlightAware
10:35AM 41.0690 -92.5880 87° East 475 547 35,500 -900 Descending FlightAware
10:35AM 41.0730 -92.4940 87° East 475 547 35,000 -840 Descending FlightAware
10:36AM 41.0770 -92.3950 87° East 475 547 34,600 -780 Descending FlightAware
10:36AM 41.0810 -92.3020 87° East 476 548 34,200 -780 Descending FlightAware
10:37AM 41.0860 -92.1860 87° East 477 549 33,700 -600 Descending FlightAware
10:38AM 41.0900 -92.0690 87° East 478 550 33,400 -840 Descending FlightAware
10:38AM 41.0960 -91.9190 87° East 479 551 32,500 -1,020 Descending FlightAware
10:39AM 41.1010 -91.7890 87° East 479 551 31,900 -840 Descending FlightAware
10:40AM 41.1040 -91.6860 88° East 473 544 31,400 -660 Descending FlightAware
10:41AM 41.1090 -91.5470 87° East 471 542 31,000 -300 Descending FlightAware
10:43AM 41.1210 -91.1860 87° East 468 539 30,600 -600 Descending FlightAware
10:43AM 41.1240 -91.0810 88° East 472 543 29,500 -2,160 Descending FlightAware
10:44AM 41.1280 -90.9620 87° East 467 537 27,800 -2,100 Descending FlightAware
10:46AM 41.1370 -90.6380 88° East 431 496 24,000 -1,800 Descending FlightAware
10:47AM 41.1390 -90.5500 88° East 424 488 23,400 -840 Descending FlightAware
10:47AM 41.1410 -90.4550 88° East 427 491 23,000 -300 Descending FlightAware
10:48AM 41.1450 -90.2940 88° East 428 493 23,000 -180 Level FlightAware
10:49AM 41.1470 -90.2000 88° East 422 486 22,800 -1,260 Descending FlightAware
10:50AM 41.1500 -90.0840 88° East 411 473 21,300 -2,100 Descending FlightAware
10:50AM 41.1520 -89.9750 89° East 405 466 19,800 -2,100 Descending FlightAware
10:51AM 41.1540 -89.8680 89° East 396 456 18,300 -2,040 Descending FlightAware
10:52AM 41.1560 -89.7730 88° East 389 448 17,000 -1,680 Descending FlightAware
10:52AM 41.1580 -89.6870 88° East 375 432 16,200 -1,140 Descending FlightAware
10:53AM 41.1590 -89.6040 89° East 369 425 15,600 -960 Descending FlightAware
10:54AM 41.1650 -89.5050 85° East 366 421 14,900 -960 Descending FlightAware
10:54AM 41.1720 -89.4090 84° East 364 419 14,200 -1,020 Descending FlightAware
10:55AM 41.1790 -89.3100 85° East 359 413 13,500 -1,020 Descending FlightAware
10:56AM 41.1850 -89.2180 85° East 356 410 12,800 -1,020 Descending FlightAware
10:56AM 41.1900 -89.1390 85° East 354 407 12,200 -1,020 Descending FlightAware
10:57AM 41.1990 -89.0370 83° East 348 400 11,400 -1,080 Descending FlightAware
10:58AM 41.2320 -88.9660 58° Northeast 349 402 10,700 -1,080 Descending FlightAware
10:58AM 41.2580 -88.9140 56° Northeast 333 383 10,200 -840 Descending FlightAware
10:59AM 41.2810 -88.8650 58° Northeast 318 366 9,900 -420 Descending FlightAware
10:59AM 41.3040 -88.8180 57° Northeast 300 345 9,800 -360 Descending FlightAware
10:59AM 41.3090 -88.8090 54° Northeast 300 345 9,700 -1,200 Descending FlightAware
11:01AM 41.3650 -88.6940 57° Northeast 294 338 8,100 -1,320 Descending FlightAware
11:01AM 41.3760 -88.6710 57° Northeast 293 337 7,700 -1,560 Descending FlightAware
11:01AM 41.3960 -88.6290 58° Northeast 287 330 7,100 -1,020 Descending FlightAware
11:02AM 41.4070 -88.6070 56° Northeast 284 327 7,000 -300 Descending FlightAware
11:02AM 41.4270 -88.5650 58° Northeast 287 330 6,900 -180 Descending FlightAware
11:02AM 41.4400 -88.5390 56° Northeast 287 330 6,900 -180 Level FlightAware
11:03AM 41.4620 -88.4930 57° Northeast 285 328 6,800 -360 Descending FlightAware
11:03AM 41.4790 -88.4570 58° Northeast 286 329 6,600 -600 Descending FlightAware
11:04AM 41.4990 -88.4160 57° Northeast 285 328 6,300 -600 Descending FlightAware
11:04AM 41.5140 -88.3710 66° East 288 331 6,100 -600 Descending FlightAware
11:05AM 41.5220 -88.3260 77° East 288 331 5,800 -600 Descending FlightAware
11:05AM 41.5310 -88.2780 76° East 286 329 5,600 -600 Descending FlightAware
11:05AM 41.5360 -88.2500 77° East 286 329 5,400 -600 Descending FlightAware
11:06AM 41.5450 -88.2070 74° East 286 329 5,200 -480 Descending FlightAware
11:06AM 41.5480 -88.1860 79° East 285 328 5,100 -480 Descending FlightAware
11:07AM 41.5580 -88.1340 76° East 285 328 4,900 -300 Descending FlightAware
11:07AM 41.5630 -88.1060 77° East 285 328 4,900  Level FlightAware
11:07AM 41.5690 -88.0620 80° East 286 329 4,900  Level FlightAware
11:08AM 41.5710 -88.0120 87° East 288 331 4,900  Level FlightAware
11:08AM 41.5720 -87.9720 88° East 287 330 4,900  Level FlightAware
11:08AM 41.5740 -87.9360 86° East 273 314 4,900  Level FlightAware
11:09AM 41.5750 -87.8860 88° East 246 283 4,900 -120 Level FlightAware
11:09AM 41.5770 -87.8440 86° East 245 282 4,800 -420 Descending FlightAware
11:10AM 41.5780 -87.8150 87° East 251 289 4,600 -720 Descending FlightAware
11:10AM 41.5800 -87.7770 86° East 260 299 4,300 -600 Descending FlightAware
11:11AM 41.5850 -87.7140 84° East 251 289 3,900 -420 Descending FlightAware
11:11AM 41.5990 -87.6880 54° Northeast 235 270 3,900  Level FlightAware
11:11AM 41.6080 -87.6750 47° Northeast 233 268 3,900 -720 Level FlightAware
11:12AM 41.6310 -87.6400 49° Northeast 230 265 3,400 -900 Descending FlightAware
11:12AM 41.6480 -87.6180 44° Northeast 219 252 3,100 -840 Descending FlightAware
11:12AM 41.6590 -87.6090 31° Northeast 209 241 2,900 -720 Descending FlightAware
11:13AM 41.6710 -87.6070 North 200 230 2,800 -600 Descending FlightAware
11:13AM 41.6850 -87.6110 348° North 187 215 2,600 -600 Descending FlightAware
11:13AM 41.6940 -87.6190 326° Northwest 179 206 2,500 -720 Descending FlightAware
11:14AM 41.7050 -87.6370 309° West 180 207 2,200 -900 Descending FlightAware
11:14AM 41.7130 -87.6490 312° West 182 209 2,000 -480 Descending FlightAware
11:14AM 41.7350 -87.6770 316° Northwest 187 215 1,800 -420 Descending FlightAware
11:15AM 41.7430 -87.6790 349° North 191 220 1,700 -300 Descending FlightAware
11:15AM 41.7650 -87.6550 39° Northeast 190 219 1,600 -180 Descending FlightAware
11:15AM 41.7720 -87.6450 47° Northeast 186 214 1,600  Level FlightAware
11:15AM 41.7810 -87.6410 18° North 178 205 1,600  Level FlightAware
11:16AM 41.8030 -87.6540 336° Northwest 172 198 1,600 -120 Level FlightAware
11:16AM 41.8180 -87.6720 318° Northwest 165 190 1,500 -180 Descending FlightAware
11:17AM 41.8210 -87.6830 290° West 164 189 1,500  Level FlightAware
11:17AM 41.8210 -87.6980 270° West 147 169 1,500 -240 Level FlightAware
11:17AM 41.8180 -87.7070 246° West 140 161 1,400 -840 Descending FlightAware
11:17AM 41.8110 -87.7190 232° Southwest 130 150 1,100 -480 Descending FlightAware
11:18AM 41.7960 -87.7380 223° Southwest 125 144 1,000 -180 Descending FlightAware